Time,TemperatureF,DewpointF,PressureIn,WindDirection,WindDirectionDegrees,WindSpeedMPH,WindSpeedGustMPH,Humidity,HourlyPrecipIn,Conditions,Clouds,dailyrainin,SoftwareType,DateUTC
2013-08-23 00:01:00,71.8,45.5,29.84,South,185,0.0,0.0,39,0.00,CLR,,0.00,WeatherDisplay:10.37,2013-08-23 04:01:00,
2013-08-23 00:02:00,71.8,46.2,29.84,South,184,0.0,0.0,40,0.00,CLR,,0.00,WeatherDisplay:10.37,2013-08-23 04:02:00,
2013-08-23 00:06:00,71.6,46.0,29.84,South,185,0.0,0.0,40,0.00,CLR,,0.00,WeatherDisplay:10.37,2013-08-23 04:06:00,
2013-08-23 00:11:00,71.4,46.5,29.84,NE,49,0.0,0.0,41,0.00,CLR,,0.00,WeatherDisplay:10.37,2013-08-23 04:11:00,
2013-08-23 00:16:00,71.4,47.1,29.84,NE,48,0.0,0.0,42,0.00,CLR,,0.00,WeatherDisplay:10.37,2013-08-23 04:16:00,
2013-08-23 00:21:00,71.4,47.1,29.84,NE,48,0.0,0.0,42,0.00,CLR,,0.00,WeatherDisplay:10.37,2013-08-23 04:21:00,
2013-08-23 00:26:00,71.2,47.0,29.84,NE,49,0.0,0.0,42,0.00,CLR,,0.00,WeatherDisplay:10.37,2013-08-23 04:26:00,
2013-08-23 00:31:00,71.2,47.0,29.87,NE,49,0.0,0.0,42,0.00,CLR,,0.00,WeatherDisplay:10.37,2013-08-23 04:31:00,
2013-08-23 00:36:00,71.2,47.0,29.87,NE,48,0.0,0.0,42,0.00,CLR,,0.00,WeatherDisplay:10.37,2013-08-23 04:36:00,
2013-08-23 00:41:00,71.1,46.8,29.87,NE,48,0.0,0.0,42,0.00,CLR,,0.00,WeatherDisplay:10.37,2013-08-23 04:41:00,
2013-08-23 00:46:00,71.1,46.8,29.84,NE,48,0.0,0.0,42,0.00,CLR,,0.00,WeatherDisplay:10.37,2013-08-23 04:46:00,
2013-08-23 00:51:00,71.1,46.8,29.84,NE,49,0.0,0.0,42,0.00,CLR,,0.00,WeatherDisplay:10.37,2013-08-23 04:51:00,
2013-08-23 00:56:00,71.2,47.6,29.84,NE,48,0.0,0.0,43,0.00,CLR,,0.00,WeatherDisplay:10.37,2013-08-23 04:56:00,
2013-08-23 01:01:00,71.2,47.0,29.84,NE,49,0.0,0.0,42,0.00,CLR,,0.00,WeatherDisplay:10.37,2013-08-23 05:01:00,
2013-08-23 01:06:00,71.1,46.8,29.84,NE,49,0.0,0.0,42,0.00,CLR,,0.00,WeatherDisplay:10.37,2013-08-23 05:06:00,
2013-08-23 01:11:00,70.9,46.6,29.84,NE,49,0.0,0.0,42,0.00,CLR,,0.00,WeatherDisplay:10.37,2013-08-23 05:11:00,
2013-08-23 01:16:00,70.7,46.5,29.84,NE,48,0.0,0.0,42,0.00,CLR,,0.00,WeatherDisplay:10.37,2013-08-23 05:16:00,
2013-08-23 01:21:00,70.5,46.9,29.84,NE,48,0.0,0.0,43,0.00,CLR,,0.00,WeatherDisplay:10.37,2013-08-23 05:21:00,
2013-08-23 01:26:00,70.5,46.9,29.84,NE,48,0.0,0.0,43,0.00,CLR,,0.00,WeatherDisplay:10.37,2013-08-23 05:26:00,
2013-08-23 01:31:00,70.5,46.9,29.84,NE,49,0.0,0.0,43,0.00,CLR,,0.00,WeatherDisplay:10.37,2013-08-23 05:31:00,
2013-08-23 01:36:00,70.7,47.7,29.84,NE,49,0.0,0.0,44,0.00,CLR,,0.00,WeatherDisplay:10.37,2013-08-23 05:36:00,
2013-08-23 01:41:00,70.5,46.9,29.84,NE,48,0.0,0.0,43,0.00,CLR,,0.00,WeatherDisplay:10.37,2013-08-23 05:41:00,
2013-08-23 01:46:00,70.7,47.1,29.87,NE,46,0.0,0.0,43,0.00,CLR,,0.00,WeatherDisplay:10.37,2013-08-23 05:46:00,
2013-08-23 01:51:00,70.5,46.9,29.87,NE,46,0.0,0.0,43,0.00,CLR,,0.00,WeatherDisplay:10.37,2013-08-23 05:51:00,
2013-08-23 01:56:00,70.5,46.9,29.87,NE,46,0.0,0.0,43,0.00,CLR,,0.00,WeatherDisplay:10.37,2013-08-23 05:56:00,
2013-08-23 02:01:00,70.5,46.9,29.87,NE,46,0.0,0.0,43,0.00,CLR,,0.00,WeatherDisplay:10.37,2013-08-23 06:01:00,
2013-08-23 02:06:00,70.7,47.1,29.87,NE,46,0.0,0.0,43,0.00,CLR,,0.00,WeatherDisplay:10.37,2013-08-23 06:06:00,
2013-08-23 02:11:00,70.9,47.3,29.87,NE,46,0.0,0.0,43,0.00,CLR,,0.00,WeatherDisplay:10.37,2013-08-23 06:11:00,
2013-08-23 02:16:00,70.9,47.3,29.87,NE,46,0.0,0.0,43,0.00,CLR,,0.00,WeatherDisplay:10.37,2013-08-23 06:16:00,
2013-08-23 02:21:00,70.9,46.6,29.87,WNW,286,0.0,0.0,42,0.00,CLR,,0.00,WeatherDisplay:10.37,2013-08-23 06:21:00,
2013-08-23 02:26:00,70.9,44.7,29.87,WNW,287,2.3,0.0,39,0.00,CLR,,0.00,WeatherDisplay:10.37,2013-08-23 06:26:00,
2013-08-23 02:31:00,71.1,43.5,29.87,NW,320,2.3,2.3,37,0.00,CLR,,0.00,WeatherDisplay:10.37,2013-08-23 06:31:00,
2013-08-23 02:36:00,71.2,42.9,29.87,NW,320,0.0,0.0,36,0.00,CLR,,0.00,WeatherDisplay:10.37,2013-08-23 06:36:00,
2013-08-23 02:41:00,71.2,42.9,29.87,NW,320,2.3,0.0,36,0.00,CLR,,0.00,WeatherDisplay:10.37,2013-08-23 06:41:00,
2013-08-23 02:46:00,71.1,41.3,29.87,WSW,257,2.3,0.0,34,0.00,CLR,,0.00,WeatherDisplay:10.37,2013-08-23 06:46:00,
2013-08-23 02:51:00,71.1,41.3,29.87,WSW,257,0.0,0.0,34,0.00,CLR,,0.00,WeatherDisplay:10.37,2013-08-23 06:51:00,
2013-08-23 02:56:00,71.1,41.3,29.87,WNW,295,3.5,3.5,34,0.00,CLR,,0.00,WeatherDisplay:10.37,2013-08-23 06:56:00,
2013-08-23 03:01:00,71.1,41.3,29.87,WNW,284,3.5,3.5,34,0.00,CLR,,0.00,WeatherDisplay:10.37,2013-08-23 07:01:00,
2013-08-23 03:06:00,71.1,41.3,29.87,NNW,341,2.3,0.0,34,0.00,CLR,,0.00,WeatherDisplay:10.37,2013-08-23 07:06:00,
2013-08-23 03:11:00,71.1,40.5,29.87,WNW,293,3.5,0.0,33,0.00,CLR,,0.00,WeatherDisplay:10.37,2013-08-23 07:11:00,
2013-08-23 03:16:00,70.9,40.3,29.87,WNW,297,2.3,0.0,33,0.00,CLR,,0.00,WeatherDisplay:10.37,2013-08-23 07:16:00,
2013-08-23 03:21:00,70.9,40.3,29.87,NNE,23,3.5,3.5,33,0.00,CLR,,0.00,WeatherDisplay:10.37,2013-08-23 07:21:00,
2013-08-23 03:26:00,70.7,40.2,29.87,WNW,291,3.5,3.5,33,0.00,CLR,,0.00,WeatherDisplay:10.37,2013-08-23 07:26:00,
2013-08-23 03:31:00,70.5,40.0,29.87,WSW,248,4.6,4.6,33,0.00,CLR,,0.00,WeatherDisplay:10.37,2013-08-23 07:31:00,
2013-08-23 03:36:00,70.5,40.0,29.87,WNW,299,3.5,3.5,33,0.00,CLR,,0.00,WeatherDisplay:10.37,2013-08-23 07:36:00,
2013-08-23 03:41:00,70.3,39.9,29.87,North,6,3.5,3.5,33,0.00,CLR,,0.00,WeatherDisplay:10.37,2013-08-23 07:41:00,
2013-08-23 03:46:00,70.2,40.5,29.87,NW,316,3.6,0.0,34,0.00,CLR,,0.00,WeatherDisplay:10.37,2013-08-23 07:46:00,
2013-08-23 03:51:00,70.2,40.5,29.87,West,279,3.5,0.0,34,0.00,CLR,,0.00,WeatherDisplay:10.37,2013-08-23 07:51:00,
2013-08-23 03:56:00,70.0,40.3,29.87,WNW,296,3.5,3.6,34,0.00,CLR,,0.00,WeatherDisplay:10.37,2013-08-23 07:56:00,
2013-08-23 04:01:00,69.8,40.2,29.87,WNW,291,2.3,2.3,34,0.00,CLR,,0.00,WeatherDisplay:10.37,2013-08-23 08:01:00,
2013-08-23 04:06:00,69.6,40.7,29.87,West,271,3.5,3.5,35,0.00,CLR,,0.00,WeatherDisplay:10.37,2013-08-23 08:06:00,
2013-08-23 04:11:00,69.6,40.7,29.87,NW,310,3.5,3.5,35,0.00,CLR,,0.00,WeatherDisplay:10.37,2013-08-23 08:11:00,
2013-08-23 04:16:00,69.4,40.6,29.87,North,6,3.5,3.5,35,0.00,CLR,,0.00,WeatherDisplay:10.37,2013-08-23 08:16:00,
2013-08-23 04:21:00,69.3,40.4,29.87,North,353,3.5,3.5,35,0.00,CLR,,0.00,WeatherDisplay:10.37,2013-08-23 08:21:00,
2013-08-23 04:26:00,69.3,40.4,29.87,West,275,2.3,0.0,35,0.00,CLR,,0.00,WeatherDisplay:10.37,2013-08-23 08:26:00,
2013-08-23 04:31:00,69.1,40.3,29.87,West,267,4.0,4.0,35,0.00,CLR,,0.00,WeatherDisplay:10.37,2013-08-23 08:31:00,
2013-08-23 04:36:00,68.9,40.1,29.87,WNW,290,2.3,0.0,35,0.00,CLR,,0.00,WeatherDisplay:10.37,2013-08-23 08:36:00,
2013-08-23 04:41:00,68.9,40.1,29.87,West,278,2.3,0.0,35,0.00,CLR,,0.00,WeatherDisplay:10.37,2013-08-23 08:41:00,
2013-08-23 04:46:00,68.7,39.9,29.87,NE,52,2.3,0.0,35,0.00,CLR,,0.00,WeatherDisplay:10.37,2013-08-23 08:46:00,
2013-08-23 04:51:00,68.5,39.8,29.87,West,275,3.5,3.5,35,0.00,CLR,,0.00,WeatherDisplay:10.37,2013-08-23 08:51:00,
2013-08-23 04:56:00,68.5,39.8,29.87,NW,304,3.5,3.5,35,0.00,CLR,,0.00,WeatherDisplay:10.37,2013-08-23 08:56:00,
2013-08-23 05:01:00,68.5,39.8,29.87,NW,322,3.5,3.5,35,0.00,CLR,,0.00,WeatherDisplay:10.37,2013-08-23 09:01:00,
2013-08-23 05:06:00,68.4,39.6,29.87,North,357,3.6,3.6,35,0.00,CLR,,0.00,WeatherDisplay:10.37,2013-08-23 09:06:00,
2013-08-23 05:11:00,68.4,39.6,29.87,NE,53,3.5,0.0,35,0.00,CLR,,0.00,WeatherDisplay:10.37,2013-08-23 09:11:00,
2013-08-23 05:16:00,68.2,39.5,29.87,West,275,2.3,0.0,35,0.00,CLR,,0.00,WeatherDisplay:10.37,2013-08-23 09:16:00,
2013-08-23 05:21:00,68.2,39.5,29.87,NW,305,3.5,3.5,35,0.00,CLR,,0.00,WeatherDisplay:10.37,2013-08-23 09:21:00,
2013-08-23 05:26:00,68.0,39.3,29.87,WSW,258,3.5,3.5,35,0.00,CLR,,0.00,WeatherDisplay:10.37,2013-08-23 09:26:00,
2013-08-23 05:31:00,68.0,39.3,29.90,NNW,334,5.8,5.8,35,0.00,CLR,,0.00,WeatherDisplay:10.37,2013-08-23 09:31:00,
2013-08-23 05:36:00,67.8,39.2,29.90,NNW,335,0.0,0.0,35,0.00,CLR,,0.00,WeatherDisplay:10.37,2013-08-23 09:36:00,
2013-08-23 05:41:00,67.8,39.2,29.90,WNW,297,0.0,0.0,35,0.00,CLR,,0.00,WeatherDisplay:10.37,2013-08-23 09:41:00,
2013-08-23 05:46:00,67.6,39.0,29.90,North,353,3.5,0.0,35,0.00,CLR,,0.00,WeatherDisplay:10.37,2013-08-23 09:46:00,
2013-08-23 05:51:00,67.6,39.0,29.90,WNW,286,2.3,0.0,35,0.00,CLR,,0.00,WeatherDisplay:10.37,2013-08-23 09:51:00,
2013-08-23 05:56:00,67.6,39.0,29.90,West,264,2.2,0.0,35,0.00,CLR,,0.00,WeatherDisplay:10.37,2013-08-23 09:56:00,
2013-08-23 06:01:00,67.5,38.8,29.90,WNW,289,0.0,0.0,35,0.00,CLR,,0.00,WeatherDisplay:10.37,2013-08-23 10:01:00,
2013-08-23 06:06:00,67.5,38.1,29.90,NNE,21,2.7,0.0,34,0.00,CLR,,0.00,WeatherDisplay:10.37,2013-08-23 10:06:00,
2013-08-23 06:11:00,67.5,38.1,29.90,WSW,251,3.5,3.5,34,0.00,CLR,,0.00,WeatherDisplay:10.37,2013-08-23 10:11:00,
2013-08-23 06:16:00,67.5,38.1,29.90,NW,306,2.3,0.0,34,0.00,CLR,,0.00,WeatherDisplay:10.37,2013-08-23 10:16:00,
2013-08-23 06:21:00,67.5,38.1,29.90,WNW,286,3.5,3.5,34,0.00,CLR,,0.00,WeatherDisplay:10.37,2013-08-23 10:21:00,
2013-08-23 06:26:00,67.5,38.1,29.90,West,273,2.3,0.0,34,0.00,CLR,,0.00,WeatherDisplay:10.37,2013-08-23 10:26:00,
2013-08-23 06:31:00,67.5,38.1,29.90,WNW,303,4.6,4.6,34,0.00,CLR,,0.00,WeatherDisplay:10.37,2013-08-23 10:31:00,
2013-08-23 06:36:00,67.5,38.1,29.90,NW,318,2.3,0.0,34,0.00,CLR,,0.00,WeatherDisplay:10.37,2013-08-23 10:36:00,
2013-08-23 06:41:00,67.5,38.1,29.90,NW,326,3.5,0.0,34,0.00,CLR,,0.00,WeatherDisplay:10.37,2013-08-23 10:41:00,
2013-08-23 06:46:00,67.5,38.1,29.93,WSW,257,3.5,3.5,34,0.00,CLR,,0.00,WeatherDisplay:10.37,2013-08-23 10:46:00,
2013-08-23 06:51:00,67.5,38.1,29.93,WNW,285,3.5,3.5,34,0.00,CLR,,0.00,WeatherDisplay:10.37,2013-08-23 10:51:00,
2013-08-23 06:56:00,67.5,38.1,29.93,West,278,3.5,0.0,34,0.00,CLR,,0.00,WeatherDisplay:10.37,2013-08-23 10:56:00,
2013-08-23 07:01:00,67.5,38.1,29.93,WNW,285,3.5,0.0,34,0.00,CLR,,0.00,WeatherDisplay:10.37,2013-08-23 11:01:00,
2013-08-23 07:06:00,67.5,38.1,29.93,West,275,3.5,3.5,34,0.00,CLR,,0.00,WeatherDisplay:10.37,2013-08-23 11:06:00,
2013-08-23 07:11:00,67.5,38.1,29.93,NNW,329,3.5,3.5,34,0.00,CLR,,0.00,WeatherDisplay:10.37,2013-08-23 11:11:00,
2013-08-23 07:16:00,67.5,38.1,29.93,West,280,2.3,0.0,34,0.00,CLR,,0.00,WeatherDisplay:10.37,2013-08-23 11:16:00,
2013-08-23 07:21:00,67.5,38.1,29.93,West,268,4.6,4.6,34,0.00,CLR,,0.00,WeatherDisplay:10.37,2013-08-23 11:21:00,
2013-08-23 07:26:00,67.6,38.3,29.93,North,349,3.5,0.0,34,0.00,CLR,,0.00,WeatherDisplay:10.37,2013-08-23 11:26:00,
2013-08-23 07:31:00,67.6,38.3,29.93,NW,305,3.1,3.1,34,0.00,CLR,,0.00,WeatherDisplay:10.37,2013-08-23 11:31:00,
2013-08-23 07:36:00,67.6,38.3,29.93,West,270,3.5,3.5,34,0.00,CLR,,0.00,WeatherDisplay:10.37,2013-08-23 11:36:00,
2013-08-23 07:41:00,67.6,38.3,29.93,WNW,286,4.0,0.0,34,0.00,CLR,,0.00,WeatherDisplay:10.37,2013-08-23 11:41:00,
2013-08-23 07:46:00,67.8,38.4,29.93,WNW,291,3.5,0.0,34,0.00,CLR,,0.00,WeatherDisplay:10.37,2013-08-23 11:46:00,
2013-08-23 07:51:00,67.8,38.4,29.93,NNW,335,3.5,3.5,34,0.00,CLR,,0.00,WeatherDisplay:10.37,2013-08-23 11:51:00,
2013-08-23 07:56:00,68.0,37.8,29.93,NNE,16,3.5,3.5,33,0.00,CLR,,0.00,WeatherDisplay:10.37,2013-08-23 11:56:00,
2013-08-23 08:01:00,68.0,37.8,29.93,North,6,2.3,0.0,33,0.00,CLR,,0.00,WeatherDisplay:10.37,2013-08-23 12:01:00,
2013-08-23 08:06:00,68.0,37.8,29.93,NNW,335,5.8,5.8,33,0.00,CLR,,0.00,WeatherDisplay:10.37,2013-08-23 12:06:00,
2013-08-23 08:11:00,68.2,38.0,29.93,WNW,296,4.6,0.0,33,0.00,CLR,,0.00,WeatherDisplay:10.37,2013-08-23 12:11:00,
2013-08-23 08:16:00,68.0,37.8,29.96,West,260,3.5,0.0,33,0.00,CLR,,0.00,WeatherDisplay:10.37,2013-08-23 12:16:00,
2013-08-23 08:21:00,68.4,38.1,29.96,North,11,0.0,0.0,33,0.00,CLR,,0.00,WeatherDisplay:10.37,2013-08-23 12:21:00,
2013-08-23 08:26:00,68.5,38.3,29.96,WSW,242,0.0,0.0,33,0.00,CLR,,0.00,WeatherDisplay:10.37,2013-08-23 12:26:00,
2013-08-23 08:31:00,68.7,38.4,29.96,WNW,290,0.0,0.0,33,0.00,CLR,,0.00,WeatherDisplay:10.37,2013-08-23 12:31:00,
2013-08-23 08:36:00,68.7,38.4,29.96,NNW,328,0.0,0.0,33,0.00,CLR,,0.00,WeatherDisplay:10.37,2013-08-23 12:36:00,
2013-08-23 08:41:00,68.7,37.7,29.96,West,265,3.5,0.0,32,0.00,CLR,,0.00,WeatherDisplay:10.37,2013-08-23 12:41:00,
2013-08-23 08:46:00,68.7,38.4,29.96,NNW,339,0.0,0.0,33,0.00,CLR,,0.00,WeatherDisplay:10.37,2013-08-23 12:46:00,
2013-08-23 08:51:00,68.9,38.6,29.96,South,178,3.5,0.0,33,0.00,CLR,,0.00,WeatherDisplay:10.37,2013-08-23 12:51:00,
2013-08-23 08:56:00,69.1,38.8,29.96,SW,220,0.0,0.0,33,0.00,CLR,,0.00,WeatherDisplay:10.37,2013-08-23 12:56:00,
2013-08-23 09:01:00,69.6,38.4,29.96,SW,220,0.0,0.0,32,0.00,CLR,,0.00,WeatherDisplay:10.37,2013-08-23 13:01:00,
2013-08-23 09:06:00,69.8,38.6,29.96,WNW,302,0.0,0.0,32,0.00,CLR,,0.00,WeatherDisplay:10.37,2013-08-23 13:06:00,
2013-08-23 09:11:00,70.0,38.8,29.96,SW,234,0.0,0.0,32,0.00,CLR,,0.00,WeatherDisplay:10.37,2013-08-23 13:11:00,
2013-08-23 09:16:00,70.0,38.8,29.96,WSW,242,2.3,0.0,32,0.00,CLR,,0.00,WeatherDisplay:10.37,2013-08-23 13:16:00,
2013-08-23 09:21:00,70.5,39.2,29.96,WNW,294,0.0,0.0,32,0.00,CLR,,0.00,WeatherDisplay:10.37,2013-08-23 13:21:00,
2013-08-23 09:26:00,71.1,37.2,29.96,WNW,303,0.0,0.0,29,0.00,CLR,,0.00,WeatherDisplay:10.37,2013-08-23 13:26:00,
2013-08-23 09:31:00,71.2,37.3,29.96,WNW,295,0.0,0.0,29,0.00,CLR,,0.00,WeatherDisplay:10.37,2013-08-23 13:31:00,
2013-08-23 09:36:00,71.4,35.7,29.96,SW,219,2.3,0.0,27,0.00,CLR,,0.00,WeatherDisplay:10.37,2013-08-23 13:36:00,
2013-08-23 09:41:00,71.2,35.5,29.96,NNE,14,3.5,0.0,27,0.00,CLR,,0.00,WeatherDisplay:10.37,2013-08-23 13:41:00,
2013-08-23 09:46:00,71.4,35.7,29.99,ENE,59,4.6,4.6,27,0.00,CLR,,0.00,WeatherDisplay:10.37,2013-08-23 13:46:00,
2013-08-23 09:51:00,71.6,34.9,29.99,WNW,288,3.5,3.5,26,0.00,CLR,,0.00,WeatherDisplay:10.37,2013-08-23 13:51:00,
2013-08-23 09:56:00,71.6,34.9,29.99,NE,35,0.0,0.0,26,0.00,CLR,,0.00,WeatherDisplay:10.37,2013-08-23 13:56:00,
2013-08-23 10:01:00,71.6,34.9,29.99,SSW,213,2.3,0.0,26,0.00,CLR,,0.00,WeatherDisplay:10.37,2013-08-23 14:01:00,
2013-08-23 10:06:00,71.4,35.7,29.99,West,276,0.0,0.0,27,0.00,CLR,,0.00,WeatherDisplay:10.37,2013-08-23 14:06:00,
2013-08-23 10:11:00,71.8,35.0,29.99,North,1,4.6,0.0,26,0.00,CLR,,0.00,WeatherDisplay:10.37,2013-08-23 14:11:00,
2013-08-23 10:16:00,72.1,35.3,29.99,WNW,297,2.3,0.0,26,0.00,CLR,,0.00,WeatherDisplay:10.37,2013-08-23 14:16:00,
2013-08-23 10:21:00,72.0,35.2,29.99,West,272,3.5,3.5,26,0.00,CLR,,0.00,WeatherDisplay:10.37,2013-08-23 14:21:00,
2013-08-23 10:26:00,72.1,35.3,29.99,NW,312,2.3,0.0,26,0.00,CLR,,0.00,WeatherDisplay:10.37,2013-08-23 14:26:00,
2013-08-23 10:31:00,72.3,35.5,29.99,SW,225,3.1,0.0,26,0.00,CLR,,0.00,WeatherDisplay:10.37,2013-08-23 14:31:00,
2013-08-23 10:36:00,72.3,35.5,29.99,NNW,346,3.5,0.0,26,0.00,CLR,,0.00,WeatherDisplay:10.37,2013-08-23 14:36:00,
2013-08-23 10:41:00,72.9,36.0,29.99,WSW,250,3.5,0.0,26,0.00,CLR,,0.00,WeatherDisplay:10.37,2013-08-23 14:41:00,
2013-08-23 10:46:00,73.2,36.3,29.99,SSW,211,3.5,3.5,26,0.00,CLR,,0.00,WeatherDisplay:10.37,2013-08-23 14:46:00,
2013-08-23 10:51:00,73.0,36.1,29.99,WSW,246,3.5,0.0,26,0.00,CLR,,0.00,WeatherDisplay:10.37,2013-08-23 14:51:00,
2013-08-23 10:56:00,73.4,36.4,29.99,SW,231,0.0,0.0,26,0.00,CLR,,0.00,WeatherDisplay:10.37,2013-08-23 14:56:00,
2013-08-23 11:01:00,73.9,36.9,29.99,WNW,290,2.3,0.0,26,0.00,CLR,,0.00,WeatherDisplay:10.37,2013-08-23 15:01:00,
2013-08-23 11:06:00,74.1,37.0,29.99,SSW,194,3.5,0.0,26,0.00,CLR,,0.00,WeatherDisplay:10.37,2013-08-23 15:06:00,
2013-08-23 11:11:00,74.7,34.4,29.99,SSW,212,5.8,5.8,23,0.00,CLR,,0.00,WeatherDisplay:10.37,2013-08-23 15:11:00,
2013-08-23 11:16:00,75.6,35.1,29.99,NW,305,5.8,5.8,23,0.00,CLR,,0.00,WeatherDisplay:10.37,2013-08-23 15:16:00,
2013-08-23 11:21:00,77.0,36.3,29.99,West,267,5.8,5.8,23,0.00,CLR,,0.00,WeatherDisplay:10.37,2013-08-23 15:21:00,
2013-08-23 11:26:00,76.6,36.0,29.99,NNW,341,4.6,4.6,23,0.00,CLR,,0.00,WeatherDisplay:10.37,2013-08-23 15:26:00,
2013-08-23 11:31:00,76.3,35.7,29.99,WSW,238,3.5,3.5,23,0.00,CLR,,0.00,WeatherDisplay:10.37,2013-08-23 15:31:00,
2013-08-23 11:36:00,77.0,36.3,29.99,West,263,5.8,0.0,23,0.00,CLR,,0.00,WeatherDisplay:10.37,2013-08-23 15:36:00,
2013-08-23 11:41:00,76.5,35.9,29.99,NNE,27,3.5,3.5,23,0.00,CLR,,0.00,WeatherDisplay:10.37,2013-08-23 15:41:00,
2013-08-23 11:46:00,76.1,35.6,29.99,WNW,294,3.5,3.5,23,0.00,CLR,,0.00,WeatherDisplay:10.37,2013-08-23 15:46:00,
2013-08-23 11:51:00,76.3,35.7,29.99,South,191,0.0,0.0,23,0.00,CLR,,0.00,WeatherDisplay:10.37,2013-08-23 15:51:00,
2013-08-23 11:56:00,77.2,36.5,29.99,WSW,245,5.8,5.8,23,0.00,CLR,,0.00,WeatherDisplay:10.37,2013-08-23 15:56:00,
2013-08-23 12:01:00,77.9,37.1,29.99,SW,235,5.8,0.0,23,0.00,CLR,,0.00,WeatherDisplay:10.37,2013-08-23 16:01:00,
2013-08-23 12:06:00,79.9,37.6,29.99,WSW,238,4.6,4.6,22,0.00,CLR,,0.00,WeatherDisplay:10.37,2013-08-23 16:06:00,
2013-08-23 12:11:00,79.7,37.5,29.99,WSW,255,3.5,0.0,22,0.00,CLR,,0.00,WeatherDisplay:10.37,2013-08-23 16:11:00,
2013-08-23 12:16:00,79.9,37.6,29.99,West,267,3.5,3.5,22,0.00,CLR,,0.00,WeatherDisplay:10.37,2013-08-23 16:16:00,
2013-08-23 12:21:00,83.8,39.7,29.99,NNW,340,5.8,5.8,21,0.00,CLR,,0.00,WeatherDisplay:10.37,2013-08-23 16:21:00,
2013-08-23 12:26:00,83.3,39.3,29.99,SE,140,4.0,0.0,21,0.00,CLR,,0.00,WeatherDisplay:10.37,2013-08-23 16:26:00,
2013-08-23 12:31:00,82.4,38.5,29.99,South,187,4.0,4.0,21,0.00,CLR,,0.00,WeatherDisplay:10.37,2013-08-23 16:31:00,
2013-08-23 12:36:00,81.3,38.8,29.99,WNW,284,3.5,3.5,22,0.00,CLR,,0.00,WeatherDisplay:10.37,2013-08-23 16:36:00,
2013-08-23 12:41:00,80.6,38.2,29.99,WNW,285,4.6,4.6,22,0.00,CLR,,0.00,WeatherDisplay:10.37,2013-08-23 16:41:00,
2013-08-23 12:46:00,80.1,37.8,29.99,WNW,282,2.3,0.0,22,0.00,CLR,,0.00,WeatherDisplay:10.37,2013-08-23 16:46:00,
2013-08-23 12:51:00,78.3,37.4,29.99,West,268,5.4,0.0,23,0.00,CLR,,0.00,WeatherDisplay:10.37,2013-08-23 16:51:00,
2013-08-23 12:56:00,77.7,37.0,29.99,NW,308,3.5,0.0,23,0.00,CLR,,0.00,WeatherDisplay:10.37,2013-08-23 16:56:00,
2013-08-23 13:01:00,78.6,37.7,29.99,SW,235,2.3,0.0,23,0.00,CLR,,0.00,WeatherDisplay:10.37,2013-08-23 17:01:00,
2013-08-23 13:06:00,83.8,39.7,29.99,WSW,253,3.5,0.0,21,0.00,CLR,,0.00,WeatherDisplay:10.37,2013-08-23 17:06:00,
2013-08-23 13:11:00,84.6,40.3,29.99,SSE,163,3.5,0.0,21,0.00,CLR,,0.00,WeatherDisplay:10.37,2013-08-23 17:11:00,
2013-08-23 13:16:00,79.2,37.0,29.99,WNW,289,3.5,3.5,22,0.00,CLR,,0.00,WeatherDisplay:10.37,2013-08-23 17:16:00,
2013-08-23 13:21:00,79.0,36.9,29.99,NNW,328,3.5,3.5,22,0.00,CLR,,0.00,WeatherDisplay:10.37,2013-08-23 17:21:00,
2013-08-23 13:26:00,80.8,38.4,29.99,West,279,2.3,0.0,22,0.00,CLR,,0.00,WeatherDisplay:10.37,2013-08-23 17:26:00,
2013-08-23 13:31:00,82.9,39.0,29.99,ENE,63,3.5,0.0,21,0.00,CLR,,0.00,WeatherDisplay:10.37,2013-08-23 17:31:00,
2013-08-23 13:36:00,81.9,39.3,29.99,West,270,3.5,0.0,22,0.00,CLR,,0.00,WeatherDisplay:10.37,2013-08-23 17:36:00,
2013-08-23 13:41:00,80.1,37.8,29.99,SW,227,3.5,0.0,22,0.00,CLR,,0.00,WeatherDisplay:10.37,2013-08-23 17:41:00,
2013-08-23 13:46:00,79.7,37.5,29.99,ENE,77,4.6,4.6,22,0.00,CLR,,0.00,WeatherDisplay:10.37,2013-08-23 17:46:00,
2013-08-23 13:51:00,78.8,36.7,29.99,NE,37,0.0,0.0,22,0.00,CLR,,0.00,WeatherDisplay:10.37,2013-08-23 17:51:00,
2013-08-23 13:56:00,78.8,36.7,29.99,West,273,0.0,0.0,22,0.00,CLR,,0.00,WeatherDisplay:10.37,2013-08-23 17:56:00,
2013-08-23 14:01:00,78.6,37.7,29.99,SW,230,3.5,0.0,23,0.00,CLR,,0.00,WeatherDisplay:10.37,2013-08-23 18:01:00,
2013-08-23 14:06:00,80.4,38.1,29.99,NNE,24,0.0,0.0,22,0.00,CLR,,0.00,WeatherDisplay:10.37,2013-08-23 18:06:00,
2013-08-23 14:11:00,85.1,40.8,29.99,NE,54,3.5,0.0,21,0.00,CLR,,0.00,WeatherDisplay:10.37,2013-08-23 18:11:00,
2013-08-23 14:16:00,85.5,41.1,29.99,South,188,2.3,0.0,21,0.00,CLR,,0.00,WeatherDisplay:10.37,2013-08-23 18:16:00,
2013-08-23 14:21:00,81.5,39.0,29.99,West,261,3.5,0.0,22,0.00,CLR,,0.00,WeatherDisplay:10.37,2013-08-23 18:21:00,
2013-08-23 14:26:00,78.4,37.6,29.99,SW,214,4.6,4.6,23,0.00,CLR,,0.00,WeatherDisplay:10.37,2013-08-23 18:26:00,
2013-08-23 14:31:00,78.3,37.4,29.99,WSW,237,3.5,3.5,23,0.00,CLR,,0.00,WeatherDisplay:10.37,2013-08-23 18:31:00,
2013-08-23 14:36:00,79.0,36.9,29.99,WNW,297,3.5,0.0,22,0.00,CLR,,0.00,WeatherDisplay:10.37,2013-08-23 18:36:00,
2013-08-23 14:41:00,79.2,37.0,29.99,WNW,293,5.4,5.4,22,0.00,CLR,,0.00,WeatherDisplay:10.37,2013-08-23 18:41:00,
2013-08-23 14:46:00,79.9,37.6,29.99,West,265,0.0,0.0,22,0.00,CLR,,0.00,WeatherDisplay:10.37,2013-08-23 18:46:00,
2013-08-23 14:51:00,79.3,37.2,29.99,WNW,295,3.5,0.0,22,0.00,CLR,,0.00,WeatherDisplay:10.37,2013-08-23 18:51:00,
2013-08-23 14:56:00,79.7,37.5,29.99,WSW,250,3.5,0.0,22,0.00,CLR,,0.00,WeatherDisplay:10.37,2013-08-23 18:56:00,
2013-08-23 15:01:00,78.4,39.7,29.99,WSW,248,3.5,3.5,25,0.00,CLR,,0.00,WeatherDisplay:10.37,2013-08-23 19:01:00,
2013-08-23 15:06:00,78.8,36.7,29.99,East,81,2.3,2.3,22,0.00,CLR,,0.00,WeatherDisplay:10.37,2013-08-23 19:06:00,
2013-08-23 15:11:00,79.2,37.0,29.99,NNW,348,3.5,0.0,22,0.00,CLR,,0.00,WeatherDisplay:10.37,2013-08-23 19:11:00,
2013-08-23 15:16:00,79.2,37.0,29.99,WSW,240,3.5,3.5,22,0.00,CLR,,0.00,WeatherDisplay:10.37,2013-08-23 19:16:00,
2013-08-23 15:21:00,79.3,37.2,29.99,West,259,3.5,3.5,22,0.00,CLR,,0.00,WeatherDisplay:10.37,2013-08-23 19:21:00,
2013-08-23 15:26:00,79.2,37.0,29.99,West,264,0.0,0.0,22,0.00,CLR,,0.00,WeatherDisplay:10.37,2013-08-23 19:26:00,
2013-08-23 15:31:00,79.5,37.3,29.99,South,171,3.5,0.0,22,0.00,CLR,,0.00,WeatherDisplay:10.37,2013-08-23 19:31:00,
2013-08-23 15:36:00,79.3,37.2,29.99,WNW,293,4.0,4.0,22,0.00,CLR,,0.00,WeatherDisplay:10.37,2013-08-23 19:36:00,
2013-08-23 15:41:00,78.8,36.7,29.99,SSE,167,3.5,0.0,22,0.00,CLR,,0.00,WeatherDisplay:10.37,2013-08-23 19:41:00,
2013-08-23 15:46:00,78.4,37.6,29.99,WSW,244,0.0,0.0,23,0.00,CLR,,0.00,WeatherDisplay:10.37,2013-08-23 19:46:00,
2013-08-23 15:51:00,79.2,37.0,29.99,West,262,3.5,3.5,22,0.00,CLR,,0.00,WeatherDisplay:10.37,2013-08-23 19:51:00,
2013-08-23 15:56:00,79.5,37.3,29.99,NNW,335,3.5,3.5,22,0.00,CLR,,0.00,WeatherDisplay:10.37,2013-08-23 19:56:00,
2013-08-23 16:01:00,79.9,37.6,29.99,WNW,303,3.5,0.0,22,0.00,CLR,,0.00,WeatherDisplay:10.37,2013-08-23 20:01:00,
2013-08-23 16:06:00,79.9,37.6,29.99,WNW,301,0.0,0.0,22,0.00,CLR,,0.00,WeatherDisplay:10.37,2013-08-23 20:06:00,
2013-08-23 16:11:00,79.7,37.5,29.99,WSW,249,3.5,0.0,22,0.00,CLR,,0.00,WeatherDisplay:10.37,2013-08-23 20:11:00,
2013-08-23 16:16:00,79.3,37.2,30.02,WSW,248,3.5,3.5,22,0.00,CLR,,0.00,WeatherDisplay:10.37,2013-08-23 20:16:00,
2013-08-23 16:21:00,79.3,37.2,30.02,WNW,287,5.8,5.8,22,0.00,CLR,,0.00,WeatherDisplay:10.37,2013-08-23 20:21:00,
2013-08-23 16:26:00,79.0,36.9,30.02,WNW,294,3.5,0.0,22,0.00,CLR,,0.00,WeatherDisplay:10.37,2013-08-23 20:26:00,
2013-08-23 16:31:00,78.8,36.7,30.02,WSW,244,3.5,3.5,22,0.00,CLR,,0.00,WeatherDisplay:10.37,2013-08-23 20:31:00,
2013-08-23 16:36:00,78.4,37.6,30.02,West,277,3.5,3.5,23,0.00,CLR,,0.00,WeatherDisplay:10.37,2013-08-23 20:36:00,
2013-08-23 16:41:00,77.9,37.1,30.02,NNE,25,3.5,3.5,23,0.00,CLR,,0.00,WeatherDisplay:10.37,2013-08-23 20:41:00,
2013-08-23 16:46:00,77.7,37.0,30.02,WSW,257,2.7,0.0,23,0.00,CLR,,0.00,WeatherDisplay:10.37,2013-08-23 20:46:00,
2013-08-23 16:51:00,77.9,37.1,30.02,West,280,0.0,0.0,23,0.00,CLR,,0.00,WeatherDisplay:10.37,2013-08-23 20:51:00,
2013-08-23 16:56:00,77.9,37.1,30.02,North,6,2.3,0.0,23,0.00,CLR,,0.00,WeatherDisplay:10.37,2013-08-23 20:56:00,
2013-08-23 17:01:00,77.9,37.1,30.02,WNW,287,2.3,0.0,23,0.00,CLR,,0.00,WeatherDisplay:10.37,2013-08-23 21:01:00,
2013-08-23 17:06:00,78.1,37.3,30.02,West,275,5.8,5.8,23,0.00,CLR,,0.00,WeatherDisplay:10.37,2013-08-23 21:06:00,
2013-08-23 17:11:00,77.7,37.0,30.02,West,266,3.5,0.0,23,0.00,CLR,,0.00,WeatherDisplay:10.37,2013-08-23 21:11:00,
2013-08-23 17:16:00,77.7,37.0,30.02,WNW,288,3.5,0.0,23,0.00,CLR,,0.00,WeatherDisplay:10.37,2013-08-23 21:16:00,
2013-08-23 17:21:00,77.2,36.5,30.02,NW,304,3.5,3.5,23,0.00,CLR,,0.00,WeatherDisplay:10.37,2013-08-23 21:21:00,
2013-08-23 17:26:00,76.6,36.0,30.02,NW,326,0.0,0.0,23,0.00,CLR,,0.00,WeatherDisplay:10.37,2013-08-23 21:26:00,
2013-08-23 17:31:00,76.1,35.6,30.02,WNW,298,2.3,0.0,23,0.00,CLR,,0.00,WeatherDisplay:10.37,2013-08-23 21:31:00,
2013-08-23 17:36:00,75.9,35.4,30.02,WNW,298,0.0,0.0,23,0.00,CLR,,0.00,WeatherDisplay:10.37,2013-08-23 21:36:00,
2013-08-23 17:41:00,75.7,35.3,30.02,WNW,300,2.3,0.0,23,0.00,CLR,,0.00,WeatherDisplay:10.37,2013-08-23 21:41:00,
2013-08-23 17:46:00,75.7,35.3,30.02,NW,311,0.0,0.0,23,0.00,CLR,,0.00,WeatherDisplay:10.37,2013-08-23 21:46:00,
2013-08-23 17:51:00,75.6,35.1,30.02,WSW,252,0.0,0.0,23,0.00,CLR,,0.00,WeatherDisplay:10.37,2013-08-23 21:51:00,
2013-08-23 17:56:00,75.6,35.1,30.02,WSW,252,0.0,0.0,23,0.00,CLR,,0.00,WeatherDisplay:10.37,2013-08-23 21:56:00,
2013-08-23 18:01:00,75.7,35.3,30.02,WNW,297,0.0,0.0,23,0.00,CLR,,0.00,WeatherDisplay:10.37,2013-08-23 22:01:00,
2013-08-23 18:06:00,75.9,35.4,30.02,NW,304,0.0,0.0,23,0.00,CLR,,0.00,WeatherDisplay:10.37,2013-08-23 22:06:00,
2013-08-23 18:11:00,75.7,35.3,30.02,WNW,295,3.5,0.0,23,0.00,CLR,,0.00,WeatherDisplay:10.37,2013-08-23 22:11:00,
2013-08-23 18:16:00,75.7,35.3,30.02,NNW,333,2.3,0.0,23,0.00,CLR,,0.00,WeatherDisplay:10.37,2013-08-23 22:16:00,
2013-08-23 18:21:00,75.6,35.1,30.02,NW,304,0.0,0.0,23,0.00,CLR,,0.00,WeatherDisplay:10.37,2013-08-23 22:21:00,
2013-08-23 18:26:00,75.4,35.0,30.02,West,266,3.5,0.0,23,0.00,CLR,,0.00,WeatherDisplay:10.37,2013-08-23 22:26:00,
2013-08-23 18:31:00,75.0,34.7,30.05,WNW,294,3.5,0.0,23,0.00,CLR,,0.00,WeatherDisplay:10.37,2013-08-23 22:31:00,
2013-08-23 18:36:00,74.7,34.4,30.05,West,265,0.0,0.0,23,0.00,CLR,,0.00,WeatherDisplay:10.37,2013-08-23 22:36:00,
2013-08-23 18:41:00,74.3,34.1,30.05,West,273,0.0,0.0,23,0.00,CLR,,0.00,WeatherDisplay:10.37,2013-08-23 22:41:00,
2013-08-23 18:46:00,73.9,33.8,30.05,North,353,3.5,3.6,23,0.00,CLR,,0.00,WeatherDisplay:10.37,2013-08-23 22:46:00,
2013-08-23 18:51:00,73.6,33.5,30.05,NW,311,0.0,0.0,23,0.00,CLR,,0.00,WeatherDisplay:10.37,2013-08-23 22:51:00,
2013-08-23 18:56:00,73.2,34.2,30.05,WSW,250,2.3,0.0,24,0.00,CLR,,0.00,WeatherDisplay:10.37,2013-08-23 22:56:00,
2013-08-23 19:01:00,72.7,33.8,30.05,WNW,283,2.3,0.0,24,0.00,CLR,,0.00,WeatherDisplay:10.37,2013-08-23 23:01:00,
2013-08-23 19:06:00,72.5,33.6,30.05,West,274,2.3,0.0,24,0.00,CLR,,0.00,WeatherDisplay:10.37,2013-08-23 23:06:00,
2013-08-23 19:11:00,72.0,33.2,30.05,SW,234,3.6,0.0,24,0.00,CLR,,0.00,WeatherDisplay:10.37,2013-08-23 23:11:00,
2013-08-23 19:16:00,71.8,33.0,30.05,West,262,0.0,0.0,24,0.00,CLR,,0.00,WeatherDisplay:10.37,2013-08-23 23:16:00,
2013-08-23 19:21:00,71.4,32.7,30.05,WNW,294,0.0,0.0,24,0.00,CLR,,0.00,WeatherDisplay:10.37,2013-08-23 23:21:00,
2013-08-23 19:26:00,71.1,32.4,30.05,WNW,284,3.5,0.0,24,0.00,CLR,,0.00,WeatherDisplay:10.37,2013-08-23 23:26:00,
2013-08-23 19:31:00,70.7,32.1,30.05,West,267,0.0,0.0,24,0.00,CLR,,0.00,WeatherDisplay:10.37,2013-08-23 23:31:00,
2013-08-23 19:36:00,70.3,31.8,30.05,West,268,0.0,0.0,24,0.00,CLR,,0.00,WeatherDisplay:10.37,2013-08-23 23:36:00,
2013-08-23 19:41:00,69.8,31.4,30.05,West,268,0.0,0.0,24,0.00,CLR,,0.00,WeatherDisplay:10.37,2013-08-23 23:41:00,
2013-08-23 19:46:00,69.6,32.2,30.08,West,268,0.0,0.0,25,0.00,CLR,,0.00,WeatherDisplay:10.37,2013-08-23 23:46:00,
2013-08-23 19:51:00,69.3,31.9,30.08,West,268,0.0,0.0,25,0.00,CLR,,0.00,WeatherDisplay:10.37,2013-08-23 23:51:00,
2013-08-23 19:56:00,68.9,31.6,30.08,West,268,0.0,0.0,25,0.00,CLR,,0.00,WeatherDisplay:10.37,2013-08-23 23:56:00,
2013-08-23 20:01:00,68.5,31.3,30.08,West,268,0.0,0.0,25,0.00,CLR,,0.00,WeatherDisplay:10.37,2013-08-24 00:01:00,
2013-08-23 20:06:00,68.4,31.1,30.08,West,268,0.0,0.0,25,0.00,CLR,,0.00,WeatherDisplay:10.37,2013-08-24 00:06:00,
2013-08-23 20:11:00,68.2,31.0,30.08,West,268,0.0,0.0,25,0.00,CLR,,0.00,WeatherDisplay:10.37,2013-08-24 00:11:00,
2013-08-23 20:16:00,68.0,30.8,30.08,SSW,210,3.6,0.0,25,0.00,CLR,,0.00,WeatherDisplay:10.37,2013-08-24 00:16:00,
2013-08-23 20:21:00,68.0,30.8,30.08,SSW,210,0.0,0.0,25,0.00,CLR,,0.00,WeatherDisplay:10.37,2013-08-24 00:21:00,
2013-08-23 20:26:00,67.8,30.7,30.08,SSW,210,0.0,0.0,25,0.00,CLR,,0.00,WeatherDisplay:10.37,2013-08-24 00:26:00,
2013-08-23 20:31:00,67.6,30.5,30.08,SSW,210,0.0,0.0,25,0.00,CLR,,0.00,WeatherDisplay:10.37,2013-08-24 00:31:00,
2013-08-23 20:36:00,67.5,30.4,30.08,SSW,210,0.0,0.0,25,0.00,CLR,,0.00,WeatherDisplay:10.37,2013-08-24 00:36:00,
2013-08-23 20:41:00,67.3,30.2,30.08,WNW,301,0.0,0.0,25,0.00,CLR,,0.00,WeatherDisplay:10.37,2013-08-24 00:41:00,
2013-08-23 20:46:00,66.9,29.9,30.08,WNW,301,0.0,0.0,25,0.00,CLR,,0.00,WeatherDisplay:10.37,2013-08-24 00:46:00,
2013-08-23 20:51:00,66.9,29.9,30.08,WNW,301,2.3,0.0,25,0.00,CLR,,0.00,WeatherDisplay:10.37,2013-08-24 00:51:00,
2013-08-23 20:56:00,66.7,29.8,30.08,NW,312,2.3,0.0,25,0.00,CLR,,0.00,WeatherDisplay:10.37,2013-08-24 00:56:00,
2013-08-23 21:01:00,66.7,29.8,30.11,West,276,0.0,0.0,25,0.00,CLR,,0.00,WeatherDisplay:10.37,2013-08-24 01:01:00,
2013-08-23 21:06:00,66.7,29.8,30.11,West,276,0.0,0.0,25,0.00,CLR,,0.00,WeatherDisplay:10.37,2013-08-24 01:06:00,
2013-08-23 21:11:00,66.6,29.6,30.11,SW,227,0.0,0.0,25,0.00,CLR,,0.00,WeatherDisplay:10.37,2013-08-24 01:11:00,
2013-08-23 21:16:00,66.7,29.8,30.11,SW,226,0.0,0.0,25,0.00,CLR,,0.00,WeatherDisplay:10.37,2013-08-24 01:16:00,
2013-08-23 21:21:00,66.7,29.8,30.11,WSW,241,2.3,2.7,25,0.00,CLR,,0.00,WeatherDisplay:10.37,2013-08-24 01:21:00,
2013-08-23 21:26:00,66.7,29.8,30.11,WSW,243,0.0,0.0,25,0.00,CLR,,0.00,WeatherDisplay:10.37,2013-08-24 01:26:00,
2013-08-23 21:31:00,66.7,29.8,30.11,West,265,2.3,0.0,25,0.00,CLR,,0.00,WeatherDisplay:10.37,2013-08-24 01:31:00,
2013-08-23 21:36:00,66.7,29.8,30.11,West,261,2.3,0.0,25,0.00,CLR,,0.00,WeatherDisplay:10.37,2013-08-24 01:36:00,
2013-08-23 21:41:00,66.6,29.6,30.11,West,262,0.0,0.0,25,0.00,CLR,,0.00,WeatherDisplay:10.37,2013-08-24 01:41:00,
2013-08-23 21:46:00,66.4,29.5,30.11,West,265,0.0,0.0,25,0.00,CLR,,0.00,WeatherDisplay:10.37,2013-08-24 01:46:00,
2013-08-23 21:51:00,66.2,29.3,30.11,West,259,0.0,0.0,25,0.00,CLR,,0.00,WeatherDisplay:10.37,2013-08-24 01:51:00,
2013-08-23 21:56:00,66.2,29.3,30.11,West,259,0.0,0.0,25,0.00,CLR,,0.00,WeatherDisplay:10.37,2013-08-24 01:56:00,
2013-08-23 22:01:00,65.8,29.0,30.11,West,259,0.0,0.0,25,0.00,CLR,,0.00,WeatherDisplay:10.37,2013-08-24 02:01:00,
2013-08-23 22:06:00,65.7,28.8,30.11,West,259,0.0,0.0,25,0.00,CLR,,0.00,WeatherDisplay:10.37,2013-08-24 02:06:00,
2013-08-23 22:11:00,65.5,28.7,30.11,West,259,0.0,0.0,25,0.00,CLR,,0.00,WeatherDisplay:10.37,2013-08-24 02:11:00,
2013-08-23 22:16:00,65.3,28.5,30.14,West,259,0.0,0.0,25,0.00,CLR,,0.00,WeatherDisplay:10.37,2013-08-24 02:16:00,
2013-08-23 22:21:00,65.1,28.4,30.14,West,259,0.0,0.0,25,0.00,CLR,,0.00,WeatherDisplay:10.37,2013-08-24 02:21:00,
2013-08-23 22:26:00,64.9,28.2,30.14,WNW,300,2.3,0.0,25,0.00,CLR,,0.00,WeatherDisplay:10.37,2013-08-24 02:26:00,
2013-08-23 22:31:00,64.8,28.1,30.14,NNW,342,2.3,0.0,25,0.00,CLR,,0.00,WeatherDisplay:10.37,2013-08-24 02:31:00,
2013-08-23 22:36:00,64.6,27.9,30.14,NW,325,0.0,0.0,25,0.00,CLR,,0.00,WeatherDisplay:10.37,2013-08-24 02:36:00,
2013-08-23 22:41:00,64.4,27.8,30.14,NW,325,0.0,0.0,25,0.00,CLR,,0.00,WeatherDisplay:10.37,2013-08-24 02:41:00,
2013-08-23 22:46:00,64.2,28.6,30.14,NW,325,0.0,0.0,26,0.00,CLR,,0.00,WeatherDisplay:10.37,2013-08-24 02:46:00,
2013-08-23 22:51:00,63.9,28.3,30.14,NW,325,0.0,0.0,26,0.00,CLR,,0.00,WeatherDisplay:10.37,2013-08-24 02:51:00,
2013-08-23 22:56:00,63.7,28.1,30.14,NW,325,0.0,0.0,26,0.00,CLR,,0.00,WeatherDisplay:10.37,2013-08-24 02:56:00,
2013-08-23 23:01:00,63.5,28.0,30.14,West,263,0.0,0.0,26,0.00,CLR,,0.00,WeatherDisplay:10.37,2013-08-24 03:01:00,
2013-08-23 23:06:00,63.3,27.8,30.14,West,263,0.0,0.0,26,0.00,CLR,,0.00,WeatherDisplay:10.37,2013-08-24 03:06:00,
2013-08-23 23:11:00,63.1,27.7,30.14,West,263,0.0,0.0,26,0.00,CLR,,0.00,WeatherDisplay:10.37,2013-08-24 03:11:00,
2013-08-23 23:16:00,63.0,27.5,30.14,West,263,0.0,0.0,26,0.00,CLR,,0.00,WeatherDisplay:10.37,2013-08-24 03:16:00,
2013-08-23 23:21:00,62.6,27.2,30.14,West,263,0.0,0.0,26,0.00,CLR,,0.00,WeatherDisplay:10.37,2013-08-24 03:21:00,
2013-08-23 23:26:00,62.2,26.9,30.14,West,263,0.0,0.0,26,0.00,CLR,,0.00,WeatherDisplay:10.37,2013-08-24 03:26:00,
2013-08-23 23:31:00,62.1,26.7,30.17,West,263,0.0,0.0,26,0.00,CLR,,0.00,WeatherDisplay:10.37,2013-08-24 03:31:00,
2013-08-23 23:36:00,61.9,26.6,30.17,West,263,0.0,0.0,26,0.00,CLR,,0.00,WeatherDisplay:10.37,2013-08-24 03:36:00,
2013-08-23 23:41:00,61.5,26.3,30.17,West,263,0.0,0.0,26,0.00,CLR,,0.00,WeatherDisplay:10.37,2013-08-24 03:41:00,
2013-08-23 23:46:00,61.2,26.0,30.17,West,263,0.0,0.0,26,0.00,CLR,,0.00,WeatherDisplay:10.37,2013-08-24 03:46:00,
2013-08-23 23:51:00,61.0,25.8,30.17,West,263,0.0,0.0,26,0.00,CLR,,0.00,WeatherDisplay:10.37,2013-08-24 03:51:00,
2013-08-23 23:56:00,60.6,26.4,30.17,West,263,0.0,0.0,27,0.00,CLR,,0.00,WeatherDisplay:10.37,2013-08-24 03:56:00,